Time;durP1;ratioP1;P1;durP2;ratioP2;P2;SDS_P1;SDS_P2;PMS_P1;PMS_P2;Temp;Humidity;BMP_temperature;BMP_pressure;BME280_temperature;BME280_humidity;BME280_pressure;Samples;Min_cycle;Max_cycle;Signal;HPM_P1;HPM_P2
2022/10/11 00:01:37;;;;;;;0.08;0.08;;;14.90;99.90;;;;;;5031453;28;20194;-60
2022/10/11 00:04:02;;;;;;;0.00;0.00;;;14.90;99.90;;;;;;5031782;28;20182;-60
2022/10/11 00:06:28;;;;;;;0.65;0.65;;;15.00;99.90;;;;;;5031653;28;20641;-60
2022/10/11 00:08:53;;;;;;;0.08;0.08;;;14.90;99.90;;;;;;5031283;28;20221;-60
2022/10/11 00:11:19;;;;;;;0.00;0.00;;;14.90;99.90;;;;;;5031549;28;20174;-60
2022/10/11 00:13:44;;;;;;;0.00;0.00;;;14.90;99.90;;;;;;5031324;28;20531;-60
2022/10/11 00:16:13;;;;;;;0.00;0.00;;;14.90;99.90;;;;;;5031344;28;20190;-60
2022/10/11 00:18:38;;;;;;;0.40;0.22;;;14.90;99.90;;;;;;5031450;28;20178;-60
2022/10/11 00:21:06;;;;;;;0.80;0.70;;;15.00;99.90;;;;;;5031371;28;20205;-60
2022/10/11 00:23:32;;;;;;;0.00;0.00;;;14.90;99.90;;;;;;5031515;28;20681;-60
2022/10/11 00:26:03;;;;;;;0.05;0.05;;;14.90;99.90;;;;;;5031026;28;20320;-60
2022/10/11 00:28:29;;;;;;;0.00;0.00;;;15.00;99.90;;;;;;5029597;28;20688;-60
2022/10/11 00:30:54;;;;;;;0.28;0.28;;;15.00;99.90;;;;;;5031437;28;20226;-60
2022/10/11 00:33:20;;;;;;;0.10;0.10;;;15.00;99.90;;;;;;5030933;28;20182;-60
2022/10/11 00:35:46;;;;;;;0.00;0.00;;;14.90;99.90;;;;;;5031521;28;20177;-60
2022/10/11 00:38:11;;;;;;;0.30;0.30;;;15.00;99.90;;;;;;5031105;28;20201;-60
2022/10/11 00:40:37;;;;;;;0.00;0.00;;;14.90;99.90;;;;;;5030713;28;20186;-60
2022/10/11 00:43:02;;;;;;;0.00;0.00;;;14.90;99.90;;;;;;5030654;28;20209;-60
2022/10/11 00:45:31;;;;;;;0.00;0.00;;;14.90;99.90;;;;;;5031457;28;20751;-60
2022/10/11 00:48:06;;;;;;;0.00;0.00;;;15.00;99.90;;;;;;5030901;28;20598;-61
2022/10/11 00:50:34;;;;;;;0.45;0.15;;;14.90;99.90;;;;;;5031135;28;20209;-60
2022/10/11 00:53:05;;;;;;;0.00;0.00;;;14.90;99.90;;;;;;5031109;28;20265;-60
2022/10/11 00:55:35;;;;;;;0.32;0.32;;;14.90;99.90;;;;;;5031058;28;20178;-61
2022/10/11 00:58:01;;;;;;;0.10;0.03;;;15.00;99.90;;;;;;5031031;28;20182;-60
2022/10/11 01:00:27;;;;;;;0.17;0.17;;;14.90;99.90;;;;;;5030797;28;20182;-60
2022/10/11 01:02:53;;;;;;;0.20;0.20;;;15.00;99.90;;;;;;5030798;28;20182;-60
2022/10/11 01:05:18;;;;;;;0.00;0.00;;;15.00;99.90;;;;;;5030781;28;20226;-60
2022/10/11 01:07:46;;;;;;;0.13;0.10;;;15.00;99.90;;;;;;5019893;28;20236;-60
2022/10/11 01:10:11;;;;;;;0.00;0.00;;;15.00;99.90;;;;;;5029623;28;20685;-60
2022/10/11 01:13:08;;;;;;;0.00;0.00;;;15.00;99.90;;;;;;5031318;28;20240;-60
2022/10/11 01:15:49;;;;;;;0.15;0.15;;;15.00;99.90;;;;;;5008186;28;20190;-60
2022/10/11 01:18:37;;;;;;;0.63;0.20;;;15.00;99.90;;;;;;5030871;28;20216;-60
2022/10/11 01:21:15;;;;;;;0.00;0.00;;;15.00;99.90;;;;;;5028414;28;20178;-60
2022/10/11 01:24:02;;;;;;;0.08;0.08;;;15.10;99.90;;;;;;5034708;28;20201;-60
2022/10/11 01:26:59;;;;;;;0.38;0.38;;;15.10;99.90;;;;;;5034095;28;20634;-60
2022/10/11 01:29:45;;;;;;;0.40;0.35;;;15.10;99.90;;;;;;5034527;28;20743;-60
2022/10/11 01:32:15;;;;;;;0.05;0.05;;;15.20;99.90;;;;;;5024655;28;20185;-60
2022/10/11 01:34:54;;;;;;;0.38;0.38;;;15.10;99.90;;;;;;5034354;28;20182;-60
2022/10/11 01:37:29;;;;;;;0.17;0.17;;;15.20;99.90;;;;;;5034238;28;20630;-60
2022/10/11 01:40:19;;;;;;;0.30;0.30;;;15.20;99.90;;;;;;5034227;28;20637;-60
2022/10/11 01:42:45;;;;;;;0.00;0.00;;;15.20;99.90;;;;;;5033512;28;20194;-60
2022/10/11 01:45:14;;;;;;;0.10;0.10;;;15.20;99.90;;;;;;5034295;28;20194;-60
2022/10/11 01:47:41;;;;;;;0.90;0.20;;;15.20;99.90;;;;;;5029696;28;20275;-60
2022/10/11 01:50:44;;;;;;;0.10;0.10;;;15.20;99.90;;;;;;5034590;28;20221;-60
2022/10/11 01:53:27;;;;;;;0.00;0.00;;;15.20;99.90;;;;;;5030319;28;20711;-60
2022/10/11 01:56:14;;;;;;;0.10;0.10;;;15.20;99.90;;;;;;5033793;28;20190;-60
2022/10/11 01:59:08;;;;;;;0.00;0.00;;;15.20;99.90;;;;;;5034099;28;20174;-60
2022/10/11 02:01:52;;;;;;;0.30;0.30;;;15.20;99.90;;;;;;5033733;28;20700;-60
2022/10/11 02:04:42;;;;;;;0.10;0.10;;;15.10;99.90;;;;;;5033601;28;20212;-60
2022/10/11 02:07:35;;;;;;;0.00;0.00;;;15.10;99.90;;;;;;5031037;28;20182;-60
2022/10/11 02:10:28;;;;;;;0.08;0.08;;;15.10;99.90;;;;;;5018381;28;20206;-60
2022/10/11 02:13:08;;;;;;;0.50;0.50;;;15.10;99.90;;;;;;5030236;28;20182;-60
2022/10/11 02:15:38;;;;;;;0.15;0.08;;;15.10;99.90;;;;;;5033116;28;20276;-60
2022/10/11 02:18:08;;;;;;;0.00;0.00;;;15.10;99.90;;;;;;5033284;28;20197;-60
2022/10/11 02:20:38;;;;;;;0.00;0.00;;;15.00;99.90;;;;;;5034054;28;20171;-60
2022/10/11 02:23:17;;;;;;;0.10;0.10;;;15.00;99.90;;;;;;5033259;28;20233;-60
2022/10/11 02:25:44;;;;;;;0.00;0.00;;;15.00;99.90;;;;;;5033620;28;20200;-60
2022/10/11 02:28:14;;;;;;;0.10;0.10;;;15.00;99.90;;;;;;5033042;28;20186;-60
2022/10/11 02:30:42;;;;;;;0.32;0.32;;;14.90;99.90;;;;;;5033428;28;20209;-60
2022/10/11 02:33:12;;;;;;;1.00;0.75;;;15.00;99.90;;;;;;5033340;28;20186;-60
2022/10/11 02:35:44;;;;;;;0.05;0.05;;;15.00;99.90;;;;;;5032582;28;20531;-60
2022/10/11 02:38:32;;;;;;;0.45;0.45;;;15.00;99.90;;;;;;5033284;28;20645;-60
2022/10/11 02:41:20;;;;;;;0.55;0.55;;;15.00;99.90;;;;;;5032922;28;20194;-60
2022/10/11 02:43:56;;;;;;;0.20;0.20;;;15.00;99.90;;;;;;5033294;28;20194;-60
2022/10/11 02:46:23;;;;;;;0.00;0.00;;;15.00;99.90;;;;;;5028882;28;20688;-60
2022/10/11 02:48:49;;;;;;;0.10;0.10;;;15.00;99.90;;;;;;5033448;28;20277;-60
2022/10/11 02:51:16;;;;;;;0.28;0.28;;;15.00;99.90;;;;;;5033400;28;20221;-60
2022/10/11 02:53:42;;;;;;;0.00;0.00;;;15.00;99.90;;;;;;5033680;28;20257;-60
2022/10/11 02:56:08;;;;;;;0.00;0.00;;;15.00;99.90;;;;;;5033384;28;20278;-60
2022/10/11 02:58:34;;;;;;;0.10;0.10;;;15.00;99.90;;;;;;5033555;28;20273;-60
2022/10/11 03:00:59;;;;;;;0.00;0.00;;;15.00;99.90;;;;;;5032471;28;20177;-60
2022/10/11 03:03:25;;;;;;;0.10;0.10;;;14.90;99.90;;;;;;5032397;28;20638;-60
2022/10/11 03:05:56;;;;;;;0.00;0.00;;;14.90;99.90;;;;;;5032920;28;20701;-60
2022/10/11 03:08:21;;;;;;;0.03;0.03;;;14.90;99.90;;;;;;5032861;28;20557;-60
2022/10/11 03:10:47;;;;;;;0.10;0.10;;;15.00;99.90;;;;;;5032521;28;20214;-59
2022/10/11 03:13:12;;;;;;;0.00;0.00;;;14.90;99.90;;;;;;5033107;28;20189;-60
2022/10/11 03:15:38;;;;;;;0.00;0.00;;;14.90;99.90;;;;;;5032569;28;20209;-60
2022/10/11 03:18:04;;;;;;;0.45;0.45;;;14.90;99.90;;;;;;5032646;28;20170;-60
2022/10/11 03:20:29;;;;;;;0.00;0.00;;;14.90;99.90;;;;;;5032577;28;20182;-60
2022/10/11 03:22:55;;;;;;;0.47;0.47;;;14.90;99.90;;;;;;5032704;28;20186;-60
2022/10/11 03:25:20;;;;;;;0.10;0.10;;;14.90;99.90;;;;;;5032485;28;20657;-60
2022/10/11 03:27:46;;;;;;;0.15;0.15;;;14.80;99.90;;;;;;5031836;28;20196;-60
2022/10/11 03:30:12;;;;;;;0.00;0.00;;;14.80;99.90;;;;;;5031994;28;20209;-60
2022/10/11 03:32:37;;;;;;;0.20;0.20;;;14.70;99.90;;;;;;5031915;28;20179;-60
2022/10/11 03:35:03;;;;;;;0.35;0.35;;;14.70;99.90;;;;;;5031296;28;20201;-61
2022/10/11 03:37:29;;;;;;;0.00;0.00;;;14.80;99.90;;;;;;5032321;28;20175;-60
2022/10/11 03:39:54;;;;;;;0.50;0.50;;;14.70;99.90;;;;;;5032027;28;20256;-60
2022/10/11 03:42:20;;;;;;;0.20;0.20;;;14.70;99.90;;;;;;5032429;28;20677;-60
2022/10/11 03:44:48;;;;;;;0.03;0.03;;;14.70;99.90;;;;;;5031996;28;20178;-59
2022/10/11 03:47:13;;;;;;;0.10;0.10;;;14.70;99.90;;;;;;5032070;28;20182;-60
2022/10/11 03:49:39;;;;;;;0.10;0.10;;;14.70;99.90;;;;;;5032528;28;20216;-59
2022/10/11 03:52:04;;;;;;;0.00;0.00;;;14.70;99.90;;;;;;5032278;28;20179;-60
2022/10/11 03:54:30;;;;;;;0.00;0.00;;;14.60;99.90;;;;;;5032115;28;20231;-60
2022/10/11 03:56:57;;;;;;;0.10;0.10;;;14.60;99.90;;;;;;5031690;28;20174;-61
2022/10/11 03:59:22;;;;;;;0.32;0.20;;;14.50;99.90;;;;;;5031803;28;20174;-61
2022/10/11 04:01:48;;;;;;;0.40;0.20;;;14.50;99.90;;;;;;5031804;28;20180;-60
2022/10/11 04:04:13;;;;;;;0.00;0.00;;;14.40;99.90;;;;;;5031646;28;20601;-60
2022/10/11 04:06:39;;;;;;;0.20;0.20;;;14.40;99.90;;;;;;5031362;28;20261;-62
2022/10/11 04:09:04;;;;;;;0.03;0.03;;;14.40;99.90;;;;;;5033653;28;20209;-61
2022/10/11 04:11:30;;;;;;;0.05;0.05;;;14.30;99.90;;;;;;5032008;28;20205;-61
2022/10/11 04:13:55;;;;;;;0.28;0.28;;;14.40;99.90;;;;;;5031902;28;20701;-61
2022/10/11 04:16:21;;;;;;;0.05;0.05;;;14.40;99.90;;;;;;5030880;28;20273;-58
2022/10/11 04:18:46;;;;;;;0.00;0.00;;;14.40;99.90;;;;;;5031904;28;20673;-60
2022/10/11 04:21:12;;;;;;;0.10;0.10;;;14.40;99.90;;;;;;5031635;28;20186;-59
2022/10/11 04:23:37;;;;;;;0.05;0.05;;;14.40;99.90;;;;;;5031690;28;20182;-57
2022/10/11 04:26:05;;;;;;;0.38;0.25;;;14.40;99.90;;;;;;5031673;28;20205;-60
2022/10/11 04:28:31;;;;;;;0.95;0.52;;;14.40;99.90;;;;;;5031955;28;20182;-59
2022/10/11 04:30:57;;;;;;;0.00;0.00;;;14.30;99.90;;;;;;5032027;28;20771;-58
2022/10/11 04:33:22;;;;;;;0.20;0.08;;;14.30;99.90;;;;;;5032011;28;20205;-58
2022/10/11 04:35:48;;;;;;;0.00;0.00;;;14.30;99.90;;;;;;5031263;28;20178;-59
2022/10/11 04:38:13;;;;;;;0.25;0.25;;;14.20;99.90;;;;;;5031722;28;20665;-57
2022/10/11 04:40:39;;;;;;;0.30;0.13;;;14.20;99.90;;;;;;5031761;28;20183;-61
2022/10/11 04:43:04;;;;;;;0.10;0.10;;;14.20;99.90;;;;;;5031715;28;20253;-59
2022/10/11 04:45:30;;;;;;;0.52;0.43;;;14.10;99.90;;;;;;5031317;28;20323;-58
2022/10/11 04:47:56;;;;;;;0.73;0.63;;;14.10;99.90;;;;;;5030170;28;20519;-59
2022/10/11 04:50:22;;;;;;;0.85;0.63;;;14.00;99.90;;;;;;5031112;28;20244;-59
2022/10/11 04:52:47;;;;;;;0.13;0.13;;;14.00;99.90;;;;;;5031783;28;20182;-59
2022/10/11 04:55:13;;;;;;;0.20;0.20;;;13.90;99.90;;;;;;5030407;28;20637;-59
2022/10/11 04:57:38;;;;;;;0.20;0.20;;;13.90;99.90;;;;;;5031767;28;20668;-59
2022/10/11 05:00:05;;;;;;;0.22;0.22;;;13.90;99.90;;;;;;5031835;28;20228;-59
2022/10/11 05:02:30;;;;;;;0.20;0.20;;;13.80;99.90;;;;;;5031802;28;20178;-59
2022/10/11 05:04:56;;;;;;;0.65;0.30;;;13.80;99.90;;;;;;5031603;28;20634;-59
2022/10/11 05:07:21;;;;;;;0.22;0.22;;;13.80;99.90;;;;;;5031822;28;20170;-59
2022/10/11 05:09:47;;;;;;;0.50;0.50;;;13.80;99.90;;;;;;5031599;28;20229;-59
2022/10/11 05:12:12;;;;;;;0.10;0.10;;;13.70;99.90;;;;;;5031766;28;20179;-59
2022/10/11 05:14:38;;;;;;;0.13;0.13;;;13.70;99.90;;;;;;5031528;28;20228;-59
2022/10/11 05:17:04;;;;;;;1.02;0.22;;;13.70;99.90;;;;;;5031702;28;20217;-59
2022/10/11 05:19:29;;;;;;;0.52;0.52;;;13.70;99.90;;;;;;5031644;28;20178;-59
2022/10/11 05:21:56;;;;;;;0.10;0.10;;;13.70;99.90;;;;;;5031587;28;20654;-59
2022/10/11 05:24:22;;;;;;;0.00;0.00;;;13.70;99.90;;;;;;5032037;28;20515;-59
2022/10/11 05:26:47;;;;;;;0.38;0.38;;;13.60;99.90;;;;;;5031626;28;20231;-59
2022/10/11 05:29:13;;;;;;;0.10;0.00;;;13.60;99.90;;;;;;5031500;28;20216;-59
2022/10/11 05:31:38;;;;;;;0.10;0.10;;;13.60;99.90;;;;;;5031365;28;20316;-59
2022/10/11 05:34:04;;;;;;;0.13;0.13;;;13.60;99.90;;;;;;5031373;28;20182;-59
2022/10/11 05:36:29;;;;;;;0.30;0.30;;;13.60;99.90;;;;;;5031332;28;20675;-59
2022/10/11 05:38:55;;;;;;;0.15;0.05;;;13.60;99.90;;;;;;5031474;28;20178;-59
2022/10/11 05:41:20;;;;;;;0.28;0.28;;;13.50;99.90;;;;;;5031385;28;20189;-59
2022/10/11 05:43:46;;;;;;;0.75;0.75;;;13.50;99.90;;;;;;5031454;28;20677;-59
2022/10/11 05:46:12;;;;;;;0.32;0.32;;;13.50;99.90;;;;;;5031670;28;20177;-59
2022/10/11 05:48:38;;;;;;;0.00;0.00;;;13.50;99.90;;;;;;5031442;28;20253;-59
2022/10/11 05:51:06;;;;;;;0.50;0.50;;;13.50;99.90;;;;;;5031379;28;20674;-59
2022/10/11 05:53:32;;;;;;;0.52;0.50;;;13.50;99.90;;;;;;5031413;28;20198;-60
2022/10/11 05:55:58;;;;;;;0.00;0.00;;;13.50;99.90;;;;;;5031401;28;20213;-59
2022/10/11 05:58:23;;;;;;;0.15;0.15;;;13.50;99.90;;;;;;5031310;28;20537;-59
2022/10/11 06:00:49;;;;;;;0.28;0.28;;;13.50;99.90;;;;;;5031314;28;20173;-59
2022/10/11 06:03:15;;;;;;;1.02;0.40;;;13.50;99.90;;;;;;5031318;28;20178;-59
2022/10/11 06:05:40;;;;;;;0.00;0.00;;;13.50;99.90;;;;;;5031045;28;20230;-59
2022/10/11 06:08:07;;;;;;;0.20;0.20;;;13.50;99.90;;;;;;5033323;28;20193;-59
2022/10/11 06:10:34;;;;;;;0.00;0.00;;;13.60;99.90;;;;;;5034596;28;20703;-59
2022/10/11 06:12:59;;;;;;;0.32;0.32;;;13.60;99.90;;;;;;5034449;28;20653;-59
2022/10/11 06:15:25;;;;;;;0.10;0.10;;;13.60;99.90;;;;;;5034498;28;20186;-59
2022/10/11 06:17:51;;;;;;;0.00;0.00;;;13.60;99.90;;;;;;5034638;28;20200;-59
2022/10/11 06:20:17;;;;;;;0.03;0.03;;;13.60;99.90;;;;;;5034371;28;20186;-59
2022/10/11 06:22:43;;;;;;;0.00;0.00;;;13.70;99.90;;;;;;5034531;28;20630;-59
2022/10/11 06:25:09;;;;;;;0.20;0.20;;;13.70;99.90;;;;;;5034284;28;20178;-59
2022/10/11 06:27:34;;;;;;;0.00;0.00;;;13.70;99.90;;;;;;5034344;28;20178;-59
2022/10/11 06:30:00;;;;;;;0.22;0.20;;;13.70;99.90;;;;;;5034239;28;20220;-59
2022/10/11 06:32:25;;;;;;;0.20;0.20;;;13.80;99.90;;;;;;5034203;28;20178;-59
2022/10/11 06:34:51;;;;;;;0.28;0.28;;;13.80;99.90;;;;;;5034306;28;20521;-59
2022/10/11 06:37:17;;;;;;;0.08;0.08;;;13.80;99.90;;;;;;5034141;28;20260;-59
2022/10/11 06:39:43;;;;;;;0.10;0.10;;;13.90;99.90;;;;;;5034287;28;20170;-59
2022/10/11 06:42:10;;;;;;;0.20;0.20;;;14.00;99.90;;;;;;5033960;28;20208;-59
2022/10/11 06:44:36;;;;;;;0.00;0.00;;;14.00;99.90;;;;;;5034141;28;20188;-59
2022/10/11 06:47:01;;;;;;;0.00;0.00;;;14.00;99.90;;;;;;5034017;28;20641;-59
2022/10/11 06:49:27;;;;;;;0.03;0.03;;;14.00;99.90;;;;;;5033708;28;20792;-59
2022/10/11 06:51:52;;;;;;;0.88;0.35;;;14.10;99.90;;;;;;5032863;28;20228;-59
2022/10/11 06:54:18;;;;;;;0.00;0.00;;;14.10;99.90;;;;;;5033863;28;20182;-59
2022/10/11 06:56:44;;;;;;;0.00;0.00;;;14.10;99.90;;;;;;5034006;28;21001;-59
2022/10/11 06:59:10;;;;;;;0.00;0.00;;;14.10;99.90;;;;;;5033801;28;20174;-59
2022/10/11 07:01:36;;;;;;;0.17;0.17;;;14.20;99.90;;;;;;5033921;28;20179;-59
2022/10/11 07:04:02;;;;;;;0.20;0.20;;;14.20;99.90;;;;;;5033587;28;20181;-59
2022/10/11 07:06:29;;;;;;;0.50;0.50;;;14.20;99.90;;;;;;5033567;28;20208;-59
2022/10/11 07:08:55;;;;;;;0.10;0.10;;;14.20;99.90;;;;;;5033523;28;20696;-59
2022/10/11 07:11:23;;;;;;;1.13;0.38;;;14.30;99.90;;;;;;5033620;28;20190;-59
2022/10/11 07:13:54;;;;;;;0.10;0.10;;;14.30;99.90;;;;;;5033411;28;20183;-59
2022/10/11 07:16:20;;;;;;;0.20;0.20;;;14.40;99.90;;;;;;5033578;28;20193;-59
2022/10/11 07:18:47;;;;;;;0.15;0.15;;;14.50;99.90;;;;;;5032224;28;20170;-59
2022/10/11 07:21:14;;;;;;;0.30;0.30;;;14.60;99.90;;;;;;5033547;28;20181;-59
2022/10/11 07:23:41;;;;;;;0.10;0.10;;;14.70;99.90;;;;;;5033403;28;20178;-59
2022/10/11 07:26:08;;;;;;;0.10;0.10;;;14.90;99.90;;;;;;5033132;28;20185;-59
2022/10/11 07:28:34;;;;;;;0.63;0.63;;;15.10;99.90;;;;;;5033319;28;20174;-59
2022/10/11 07:31:05;;;;;;;0.17;0.17;;;15.20;99.90;;;;;;5033097;28;20245;-59
2022/10/11 07:33:31;;;;;;;0.25;0.25;;;15.30;99.90;;;;;;5033307;28;20175;-59
2022/10/11 07:35:57;;;;;;;0.30;0.30;;;15.40;99.90;;;;;;5033130;28;20174;-59
2022/10/11 07:38:22;;;;;;;0.15;0.15;;;15.40;99.90;;;;;;5033013;28;20171;-59
2022/10/11 07:40:48;;;;;;;0.00;0.00;;;15.50;99.90;;;;;;5033024;28;20181;-59
2022/10/11 07:43:13;;;;;;;0.10;0.10;;;15.50;99.90;;;;;;5032931;28;20225;-59
2022/10/11 07:45:40;;;;;;;0.00;0.00;;;15.60;99.90;;;;;;5032892;28;20185;-59
2022/10/11 07:48:05;;;;;;;0.00;0.00;;;15.60;99.90;;;;;;5032804;28;20185;-59
2022/10/11 07:50:32;;;;;;;0.00;0.00;;;15.60;99.90;;;;;;5032831;28;20214;-59
2022/10/11 07:52:58;;;;;;;0.10;0.10;;;15.60;99.90;;;;;;5033029;28;20185;-59
2022/10/11 07:55:26;;;;;;;0.22;0.22;;;15.50;99.90;;;;;;5032799;28;20174;-59
2022/10/11 07:57:53;;;;;;;0.00;0.00;;;15.50;99.90;;;;;;5032702;28;20178;-59
2022/10/11 08:00:19;;;;;;;0.00;0.00;;;15.50;99.90;;;;;;5032595;28;20209;-59
2022/10/11 08:02:44;;;;;;;0.17;0.17;;;15.50;99.90;;;;;;5032653;28;20217;-59
2022/10/11 08:05:10;;;;;;;0.00;0.00;;;15.50;99.90;;;;;;5032405;28;20226;-59
2022/10/11 08:07:36;;;;;;;0.00;0.00;;;15.60;99.90;;;;;;5032658;28;20179;-59
2022/10/11 08:10:02;;;;;;;0.17;0.17;;;15.60;99.90;;;;;;5032419;28;20229;-59
2022/10/11 08:12:27;;;;;;;0.05;0.05;;;15.60;99.90;;;;;;5032347;28;20178;-60
2022/10/11 08:14:54;;;;;;;0.10;0.10;;;15.60;99.90;;;;;;5032513;28;20178;-60
2022/10/11 08:17:19;;;;;;;0.00;0.00;;;15.60;99.90;;;;;;5032401;28;20166;-60
2022/10/11 08:19:45;;;;;;;0.00;0.00;;;15.70;99.90;;;;;;5032220;28;20190;-60
2022/10/11 08:22:10;;;;;;;0.00;0.00;;;15.80;99.90;;;;;;5032253;28;20178;-60
2022/10/11 08:24:36;;;;;;;0.10;0.10;;;15.90;99.90;;;;;;5032261;28;20174;-60
2022/10/11 08:27:02;;;;;;;0.15;0.15;;;15.90;99.90;;;;;;5032130;28;20178;-60
2022/10/11 08:29:27;;;;;;;0.00;0.00;;;16.00;99.90;;;;;;5031838;28;20216;-60
2022/10/11 08:31:53;;;;;;;0.00;0.00;;;16.00;99.90;;;;;;5032040;28;20630;-60
2022/10/11 08:34:18;;;;;;;0.05;0.05;;;16.10;99.90;;;;;;5032093;28;20177;-60
2022/10/11 08:36:44;;;;;;;0.00;0.00;;;16.20;99.90;;;;;;5032114;28;20217;-60
2022/10/11 08:39:09;;;;;;;0.22;0.22;;;16.20;99.90;;;;;;5032016;28;20181;-60
2022/10/11 08:41:43;;;;;;;0.00;0.00;;;16.30;99.90;;;;;;5032085;28;20685;-60
2022/10/11 08:44:36;;;;;;;0.00;0.00;;;16.30;99.90;;;;;;5031868;28;20193;-60
2022/10/11 08:47:35;;;;;;;0.20;0.20;;;16.30;99.90;;;;;;5031917;28;20176;-60
2022/10/11 08:50:02;;;;;;;0.00;0.00;;;16.40;99.90;;;;;;5031533;28;20230;-60
2022/10/11 08:52:41;;;;;;;0.00;0.00;;;16.60;99.90;;;;;;5031697;28;20185;-60
2022/10/11 08:55:24;;;;;;;0.00;0.00;;;16.70;99.90;;;;;;5031812;28;20177;-60
2022/10/11 08:57:54;;;;;;;0.00;0.00;;;16.80;99.90;;;;;;5031915;28;20182;-60
2022/10/11 09:00:21;;;;;;;0.00;0.00;;;16.90;99.90;;;;;;5031712;28;20232;-60
2022/10/11 09:03:22;;;;;;;0.00;0.00;;;16.90;99.90;;;;;;5031775;28;20244;-60
2022/10/11 09:06:20;;;;;;;0.13;0.13;;;17.00;99.90;;;;;;5031544;28;20249;-60
2022/10/11 09:08:55;;;;;;;0.00;0.00;;;17.10;99.90;;;;;;5031500;28;20209;-60
2022/10/11 09:11:37;;;;;;;0.00;0.00;;;17.10;99.90;;;;;;5031573;28;20205;-60
2022/10/11 09:14:11;;;;;;;0.00;0.00;;;17.00;99.90;;;;;;5031700;28;20198;-60
2022/10/11 09:16:59;;;;;;;0.45;0.20;;;17.00;99.90;;;;;;5031701;28;20181;-60
2022/10/11 09:19:32;;;;;;;0.10;0.10;;;17.00;99.90;;;;;;5031255;28;20197;-60
2022/10/11 09:22:19;;;;;;;0.00;0.00;;;17.00;99.90;;;;;;5031649;28;20210;-60
2022/10/11 09:25:04;;;;;;;0.00;0.00;;;17.00;99.90;;;;;;5031565;28;20189;-60
2022/10/11 09:27:38;;;;;;;0.00;0.00;;;17.00;99.90;;;;;;5031614;28;20262;-60
2022/10/11 09:30:10;;;;;;;0.10;0.10;;;17.10;99.90;;;;;;5031467;28;20217;-60
2022/10/11 09:32:38;;;;;;;0.10;0.10;;;17.20;99.90;;;;;;5031575;28;20175;-60
2022/10/11 09:35:19;;;;;;;0.20;0.20;;;17.20;99.90;;;;;;5031399;28;20178;-60
2022/10/11 09:37:59;;;;;;;0.45;0.45;;;17.30;99.90;;;;;;5031409;28;20332;-60
2022/10/11 09:40:54;;;;;;;0.52;0.52;;;17.40;99.90;;;;;;5031303;28;20649;-60
2022/10/11 09:43:19;;;;;;;0.00;0.00;;;17.40;99.90;;;;;;5034050;28;20228;-60
2022/10/11 09:45:45;;;;;;;0.00;0.00;;;17.50;99.90;;;;;;5035169;28;20662;-60
2022/10/11 09:48:19;;;;;;;0.05;0.05;;;17.60;99.90;;;;;;5035081;28;20213;-60
2022/10/11 09:50:45;;;;;;;0.00;0.00;;;17.70;99.90;;;;;;5035104;28;20214;-60
2022/10/11 09:53:10;;;;;;;0.10;0.10;;;17.80;99.90;;;;;;5035007;28;20247;-60
2022/10/11 09:55:49;;;;;;;0.00;0.00;;;17.80;99.90;;;;;;5035077;28;20634;-60
2022/10/11 09:58:31;;;;;;;0.10;0.00;;;17.80;99.90;;;;;;5035029;28;20170;-60
2022/10/11 10:01:10;;;;;;;0.10;0.10;;;17.80;99.90;;;;;;5034908;28;20186;-60
2022/10/11 10:03:40;;;;;;;0.10;0.10;;;17.80;99.90;;;;;;5034977;28;20185;-60
2022/10/11 10:06:14;;;;;;;0.00;0.00;;;17.80;99.90;;;;;;5034565;28;20233;-60
2022/10/11 10:08:41;;;;;;;0.45;0.30;;;17.90;99.90;;;;;;5034786;28;20251;-60
2022/10/11 10:11:09;;;;;;;0.00;0.00;;;17.90;99.90;;;;;;5034521;28;20252;-60
2022/10/11 10:13:54;;;;;;;0.10;0.10;;;18.00;99.90;;;;;;5034770;28;20540;-60
2022/10/11 10:16:29;;;;;;;0.05;0.05;;;18.00;99.90;;;;;;5034631;28;20225;-61
2022/10/11 10:18:55;;;;;;;0.00;0.00;;;17.90;99.90;;;;;;5029972;28;20180;-60
2022/10/11 10:21:44;;;;;;;0.05;0.05;;;17.90;99.90;;;;;;5014704;28;20174;-60
2022/10/11 10:24:38;;;;;;;0.00;0.00;;;18.20;99.90;;;;;;5014753;28;20183;-60
2022/10/11 10:27:26;;;;;;;0.00;0.00;;;18.40;99.90;;;;;;5023361;28;20205;-60
2022/10/11 10:30:06;;;;;;;0.00;0.00;;;18.70;99.90;;;;;;5034383;28;20300;-60
2022/10/11 10:33:02;;;;;;;1.65;0.10;;;18.80;99.90;;;;;;5034229;28;20201;-60
2022/10/11 10:35:43;;;;;;;0.10;0.10;;;18.80;99.90;;;;;;5034174;28;20188;-60
2022/10/11 10:38:20;;;;;;;0.00;0.00;;;18.80;99.90;;;;;;5034090;28;20240;-60
2022/10/11 10:40:51;;;;;;;0.00;0.00;;;18.70;99.90;;;;;;5034161;28;20188;-60
2022/10/11 10:43:23;;;;;;;0.00;0.00;;;18.80;99.90;;;;;;5034117;28;20672;-60
2022/10/11 10:46:17;;;;;;;0.00;0.00;;;18.70;99.90;;;;;;5033999;28;20634;-60
2022/10/11 10:49:14;;;;;;;0.00;0.00;;;18.60;99.90;;;;;;5034109;28;20261;-60
2022/10/11 10:52:04;;;;;;;0.17;0.17;;;18.50;99.90;;;;;;5033950;28;20668;-60
2022/10/11 10:54:42;;;;;;;0.00;0.00;;;18.40;99.90;;;;;;5033661;28;20178;-60
2022/10/11 10:57:23;;;;;;;0.10;0.10;;;18.50;99.90;;;;;;5033725;28;20201;-60
2022/10/11 11:00:11;;;;;;;0.08;0.00;;;18.80;99.90;;;;;;5033792;28;20192;-60
2022/10/11 11:02:43;;;;;;;0.00;0.00;;;19.10;99.90;;;;;;5033881;28;20181;-60
2022/10/11 11:05:29;;;;;;;0.20;0.10;;;19.20;99.90;;;;;;5033374;28;20230;-60
2022/10/11 11:08:15;;;;;;;0.00;0.00;;;19.40;99.90;;;;;;5033661;28;20228;-60
2022/10/11 11:11:13;;;;;;;0.00;0.00;;;19.50;99.90;;;;;;5033581;28;20681;-60
2022/10/11 11:14:14;;;;;;;0.00;0.00;;;19.70;99.90;;;;;;5033618;28;20182;-60
2022/10/11 11:16:59;;;;;;;0.20;0.08;;;20.00;99.90;;;;;;5033511;28;20228;-60
2022/10/11 11:19:43;;;;;;;0.00;0.00;;;20.00;99.90;;;;;;5033286;28;20192;-60
2022/10/11 11:22:46;;;;;;;0.10;0.10;;;20.10;99.90;;;;;;5033298;28;20260;-60
2022/10/11 11:25:41;;;;;;;0.00;0.00;;;20.20;99.90;;;;;;5033359;28;20186;-60
2022/10/11 11:28:37;;;;;;;0.00;0.00;;;20.20;99.40;;;;;;5033150;28;20240;-60
2022/10/11 11:31:27;;;;;;;0.00;0.00;;;19.90;99.50;;;;;;5033163;28;20222;-60
2022/10/11 11:33:58;;;;;;;0.00;0.00;;;19.70;99.60;;;;;;5033265;28;20201;-60
2022/10/11 11:36:39;;;;;;;0.00;0.00;;;19.70;99.90;;;;;;5033046;28;20182;-60
2022/10/11 11:39:09;;;;;;;0.00;0.00;;;19.80;99.90;;;;;;5033001;28;20196;-60
2022/10/11 11:41:40;;;;;;;0.00;0.00;;;19.90;99.90;;;;;;5033124;28;20273;-60
2022/10/11 11:44:20;;;;;;;0.10;0.10;;;20.10;99.80;;;;;;5032903;28;20531;-60
2022/10/11 11:47:20;;;;;;;0.13;0.03;;;20.30;99.90;;;;;;5032894;28;20653;-60
2022/10/11 11:49:52;;;;;;;0.05;0.05;;;20.50;99.90;;;;;;5032704;28;20297;-60
2022/10/11 11:52:54;;;;;;;0.00;0.00;;;20.40;99.90;;;;;;5032865;28;20186;-60
2022/10/11 11:55:20;;;;;;;0.00;0.00;;;20.20;99.90;;;;;;5031466;28;20177;-60
2022/10/11 11:58:04;;;;;;;0.00;0.00;;;19.90;99.90;;;;;;5032633;28;20193;-60
2022/10/11 12:01:10;;;;;;;0.55;0.55;;;19.70;99.90;;;;;;5032660;28;20651;-60
2022/10/11 12:03:40;;;;;;;0.00;0.00;;;19.50;99.90;;;;;;5032788;28;20176;-60
2022/10/11 12:06:17;;;;;;;0.40;0.40;;;19.40;99.90;;;;;;5031611;28;20221;-60
2022/10/11 12:08:47;;;;;;;0.00;0.00;;;19.20;99.90;;;;;;5032523;28;20178;-60
2022/10/11 12:11:22;;;;;;;0.10;0.10;;;19.10;99.90;;;;;;5032353;28;20673;-60
2022/10/11 12:13:50;;;;;;;0.32;0.17;;;18.90;99.90;;;;;;5032396;28;20249;-60
2022/10/11 12:16:16;;;;;;;0.00;0.00;;;18.70;99.90;;;;;;5032313;28;20657;-60
2022/10/11 12:18:56;;;;;;;0.00;0.00;;;18.60;99.90;;;;;;5032202;28;20186;-60
2022/10/11 12:21:30;;;;;;;0.10;0.10;;;18.50;99.90;;;;;;5032280;28;20178;-60
2022/10/11 12:23:58;;;;;;;0.32;0.32;;;18.40;99.90;;;;;;5032283;28;20174;-60
2022/10/11 12:26:27;;;;;;;0.00;0.00;;;18.30;99.90;;;;;;5032291;28;20178;-60
2022/10/11 12:29:03;;;;;;;0.13;0.13;;;18.30;99.90;;;;;;5032211;28;20170;-60
2022/10/11 12:31:32;;;;;;;0.32;0.32;;;18.30;99.90;;;;;;5032119;28;20194;-60
2022/10/11 12:34:01;;;;;;;0.00;0.00;;;18.30;99.90;;;;;;5032160;28;20213;-60
2022/10/11 12:36:45;;;;;;;0.13;0.13;;;18.30;99.90;;;;;;5031877;28;20680;-60
2022/10/11 12:39:17;;;;;;;0.10;0.10;;;18.30;99.90;;;;;;5032122;28;20226;-60
2022/10/11 12:41:46;;;;;;;0.10;0.10;;;18.20;99.90;;;;;;5031987;28;20178;-60
2022/10/11 12:44:17;;;;;;;0.15;0.15;;;18.20;99.90;;;;;;5031830;28;20178;-60
2022/10/11 12:46:49;;;;;;;0.10;0.10;;;18.20;99.90;;;;;;5031839;28;20653;-60
2022/10/11 12:49:23;;;;;;;0.10;0.10;;;18.10;99.90;;;;;;5031796;28;20174;-60
2022/10/11 12:52:02;;;;;;;0.00;0.00;;;18.10;99.90;;;;;;5031776;28;20177;-60
2022/10/11 12:54:53;;;;;;;0.30;0.30;;;18.00;99.90;;;;;;5031782;28;20205;-60
2022/10/11 12:57:47;;;;;;;0.00;0.00;;;17.90;99.90;;;;;;5031759;28;20213;-60
2022/10/11 13:00:17;;;;;;;0.10;0.10;;;17.80;99.90;;;;;;5031724;28;20273;-60
2022/10/11 13:02:43;;;;;;;0.00;0.00;;;17.70;99.90;;;;;;5031912;28;20174;-60
2022/10/11 13:05:19;;;;;;;0.00;0.00;;;17.70;99.90;;;;;;5031441;28;20236;-60
2022/10/11 13:07:46;;;;;;;0.00;0.00;;;17.70;99.90;;;;;;5031714;28;20299;-60
2022/10/11 13:10:15;;;;;;;0.20;0.10;;;17.70;99.90;;;;;;5031556;28;20681;-60
2022/10/11 13:12:44;;;;;;;0.00;0.00;;;17.70;99.90;;;;;;5031634;28;20178;-60